sensor_id;sensor_type;location;lat;lon;timestamp;temperature;humidity
13268;DHT22;6702;47.068;15.458;2022-08-01T00:02:23;22.30;90.90
13268;DHT22;6702;47.068;15.458;2022-08-01T00:05:27;22.30;91.10
13268;DHT22;6702;47.068;15.458;2022-08-01T00:08:30;22.30;91.10
13268;DHT22;6702;47.068;15.458;2022-08-01T00:11:35;22.30;91.10
13268;DHT22;6702;47.068;15.458;2022-08-01T00:14:38;22.30;90.90
13268;DHT22;6702;47.068;15.458;2022-08-01T00:17:42;22.30;91.00
13268;DHT22;6702;47.068;15.458;2022-08-01T00:20:45;22.20;91.20
13268;DHT22;6702;47.068;15.458;2022-08-01T00:23:49;22.20;91.30
13268;DHT22;6702;47.068;15.458;2022-08-01T00:26:53;22.10;91.50
13268;DHT22;6702;47.068;15.458;2022-08-01T00:29:56;22.10;91.80
13268;DHT22;6702;47.068;15.458;2022-08-01T00:33:14;22.10;91.90
13268;DHT22;6702;47.068;15.458;2022-08-01T00:36:18;22.00;92.10
13268;DHT22;6702;47.068;15.458;2022-08-01T00:39:21;22.00;92.20
13268;DHT22;6702;47.068;15.458;2022-08-01T00:42:25;22.00;92.00
13268;DHT22;6702;47.068;15.458;2022-08-01T00:45:28;21.90;91.90
13268;DHT22;6702;47.068;15.458;2022-08-01T00:48:32;21.90;92.10
13268;DHT22;6702;47.068;15.458;2022-08-01T00:51:35;21.90;92.30
13268;DHT22;6702;47.068;15.458;2022-08-01T00:54:39;21.80;92.20
13268;DHT22;6702;47.068;15.458;2022-08-01T00:57:44;21.70;92.30
13268;DHT22;6702;47.068;15.458;2022-08-01T01:01:05;21.70;92.40
13268;DHT22;6702;47.068;15.458;2022-08-01T01:04:09;21.60;92.50
13268;DHT22;6702;47.068;15.458;2022-08-01T01:07:17;21.50;92.90
13268;DHT22;6702;47.068;15.458;2022-08-01T01:10:24;21.40;93.10
13268;DHT22;6702;47.068;15.458;2022-08-01T01:13:35;21.30;93.10
13268;DHT22;6702;47.068;15.458;2022-08-01T01:16:53;21.30;93.10
13268;DHT22;6702;47.068;15.458;2022-08-01T01:19:57;21.30;93.30
13268;DHT22;6702;47.068;15.458;2022-08-01T01:23:12;21.30;93.40
13268;DHT22;6702;47.068;15.458;2022-08-01T01:26:25;21.30;93.60
13268;DHT22;6702;47.068;15.458;2022-08-01T01:29:35;21.20;93.70
13268;DHT22;6702;47.068;15.458;2022-08-01T01:33:03;21.20;94.00
13268;DHT22;6702;47.068;15.458;2022-08-01T01:36:09;21.20;94.20
13268;DHT22;6702;47.068;15.458;2022-08-01T01:39:16;21.20;94.20
13268;DHT22;6702;47.068;15.458;2022-08-01T01:42:20;21.20;94.30
13268;DHT22;6702;47.068;15.458;2022-08-01T01:45:27;21.10;94.50
13268;DHT22;6702;47.068;15.458;2022-08-01T01:48:32;21.00;94.90
13268;DHT22;6702;47.068;15.458;2022-08-01T01:51:37;21.10;95.00
13268;DHT22;6702;47.068;15.458;2022-08-01T01:54:45;21.10;95.10
13268;DHT22;6702;47.068;15.458;2022-08-01T01:57:50;21.10;95.20
13268;DHT22;6702;47.068;15.458;2022-08-01T02:00:57;21.10;95.20
13268;DHT22;6702;47.068;15.458;2022-08-01T02:04:04;21.10;95.20
13268;DHT22;6702;47.068;15.458;2022-08-01T02:07:09;21.10;95.30
13268;DHT22;6702;47.068;15.458;2022-08-01T02:10:14;21.10;95.30
13268;DHT22;6702;47.068;15.458;2022-08-01T02:13:20;21.00;95.60
13268;DHT22;6702;47.068;15.458;2022-08-01T02:16:28;21.10;95.80
13268;DHT22;6702;47.068;15.458;2022-08-01T02:19:32;21.10;95.90
13268;DHT22;6702;47.068;15.458;2022-08-01T02:22:42;21.00;96.20
13268;DHT22;6702;47.068;15.458;2022-08-01T02:25:49;21.00;96.40
13268;DHT22;6702;47.068;15.458;2022-08-01T02:29:15;21.00;96.30
13268;DHT22;6702;47.068;15.458;2022-08-01T02:32:34;20.90;96.30
13268;DHT22;6702;47.068;15.458;2022-08-01T02:35:41;20.90;96.20
13268;DHT22;6702;47.068;15.458;2022-08-01T02:39:08;20.90;95.90
13268;DHT22;6702;47.068;15.458;2022-08-01T02:42:13;21.00;96.20
13268;DHT22;6702;47.068;15.458;2022-08-01T02:45:18;21.00;96.30
13268;DHT22;6702;47.068;15.458;2022-08-01T02:48:25;20.90;96.20
13268;DHT22;6702;47.068;15.458;2022-08-01T02:51:30;20.90;96.40
13268;DHT22;6702;47.068;15.458;2022-08-01T02:54:34;21.00;96.30
13268;DHT22;6702;47.068;15.458;2022-08-01T02:57:39;21.00;96.00
13268;DHT22;6702;47.068;15.458;2022-08-01T03:00:53;21.00;95.70
13268;DHT22;6702;47.068;15.458;2022-08-01T03:03:59;21.00;95.60
13268;DHT22;6702;47.068;15.458;2022-08-01T03:07:04;21.00;95.60
13268;DHT22;6702;47.068;15.458;2022-08-01T03:10:08;21.00;95.70
13268;DHT22;6702;47.068;15.458;2022-08-01T03:13:13;21.00;95.70
13268;DHT22;6702;47.068;15.458;2022-08-01T03:16:18;21.00;95.80
13268;DHT22;6702;47.068;15.458;2022-08-01T03:19:24;21.00;96.10
13268;DHT22;6702;47.068;15.458;2022-08-01T03:22:29;20.90;96.20
13268;DHT22;6702;47.068;15.458;2022-08-01T03:25:35;20.90;96.20
13268;DHT22;6702;47.068;15.458;2022-08-01T03:28:40;20.80;96.30
13268;DHT22;6702;47.068;15.458;2022-08-01T03:31:45;20.70;96.50
13268;DHT22;6702;47.068;15.458;2022-08-01T03:34:50;20.60;96.60
13268;DHT22;6702;47.068;15.458;2022-08-01T03:37:55;20.60;96.70
13268;DHT22;6702;47.068;15.458;2022-08-01T03:41:20;20.50;96.60
13268;DHT22;6702;47.068;15.458;2022-08-01T03:44:26;20.50;96.70
13268;DHT22;6702;47.068;15.458;2022-08-01T03:47:32;20.50;96.90
13268;DHT22;6702;47.068;15.458;2022-08-01T03:50:50;20.50;97.00
13268;DHT22;6702;47.068;15.458;2022-08-01T03:53:53;20.50;97.00
13268;DHT22;6702;47.068;15.458;2022-08-01T03:56:58;20.40;97.20
13268;DHT22;6702;47.068;15.458;2022-08-01T04:00:04;20.40;97.30
13268;DHT22;6702;47.068;15.458;2022-08-01T04:03:11;20.40;97.30
13268;DHT22;6702;47.068;15.458;2022-08-01T04:06:16;20.40;97.70
13268;DHT22;6702;47.068;15.458;2022-08-01T04:09:20;20.40;97.80
13268;DHT22;6702;47.068;15.458;2022-08-01T04:12:23;20.50;97.90
13268;DHT22;6702;47.068;15.458;2022-08-01T04:15:26;20.50;97.90
13268;DHT22;6702;47.068;15.458;2022-08-01T04:18:30;20.50;97.90
13268;DHT22;6702;47.068;15.458;2022-08-01T04:21:35;20.60;97.80
13268;DHT22;6702;47.068;15.458;2022-08-01T04:24:40;20.50;98.00
13268;DHT22;6702;47.068;15.458;2022-08-01T04:27:46;20.60;97.70
13268;DHT22;6702;47.068;15.458;2022-08-01T04:30:55;20.60;97.60
13268;DHT22;6702;47.068;15.458;2022-08-01T04:34:04;20.60;97.40
13268;DHT22;6702;47.068;15.458;2022-08-01T04:37:10;20.60;97.60
13268;DHT22;6702;47.068;15.458;2022-08-01T04:40:15;20.60;97.60
13268;DHT22;6702;47.068;15.458;2022-08-01T04:43:18;20.60;97.40
13268;DHT22;6702;47.068;15.458;2022-08-01T04:46:22;20.70;97.40
13268;DHT22;6702;47.068;15.458;2022-08-01T04:49:25;20.80;97.50
13268;DHT22;6702;47.068;15.458;2022-08-01T04:52:34;20.90;97.40
13268;DHT22;6702;47.068;15.458;2022-08-01T04:55:37;21.00;97.10
13268;DHT22;6702;47.068;15.458;2022-08-01T04:58:41;21.10;96.70
13268;DHT22;6702;47.068;15.458;2022-08-01T05:01:48;21.10;96.70
13268;DHT22;6702;47.068;15.458;2022-08-01T05:04:51;21.20;96.70
13268;DHT22;6702;47.068;15.458;2022-08-01T05:07:58;21.20;96.60
13268;DHT22;6702;47.068;15.458;2022-08-01T05:11:02;21.20;96.50
13268;DHT22;6702;47.068;15.458;2022-08-01T05:14:05;21.20;96.50
13268;DHT22;6702;47.068;15.458;2022-08-01T05:17:09;21.30;96.40
13268;DHT22;6702;47.068;15.458;2022-08-01T05:20:12;21.60;96.00
13268;DHT22;6702;47.068;15.458;2022-08-01T05:23:17;21.90;95.50
13268;DHT22;6702;47.068;15.458;2022-08-01T05:26:40;22.30;95.10
13268;DHT22;6702;47.068;15.458;2022-08-01T05:29:45;22.80;94.10
13268;DHT22;6702;47.068;15.458;2022-08-01T05:32:48;23.00;93.70
13268;DHT22;6702;47.068;15.458;2022-08-01T05:35:51;23.20;93.40
13268;DHT22;6702;47.068;15.458;2022-08-01T05:38:56;23.10;92.60
13268;DHT22;6702;47.068;15.458;2022-08-01T05:41:59;23.00;92.60
13268;DHT22;6702;47.068;15.458;2022-08-01T05:45:02;22.90;92.60
13268;DHT22;6702;47.068;15.458;2022-08-01T05:48:06;22.80;92.80
13268;DHT22;6702;47.068;15.458;2022-08-01T05:51:09;22.70;92.90
13268;DHT22;6702;47.068;15.458;2022-08-01T05:54:13;22.50;92.70
13268;DHT22;6702;47.068;15.458;2022-08-01T05:57:16;22.40;92.40
13268;DHT22;6702;47.068;15.458;2022-08-01T06:00:20;22.20;92.60
13268;DHT22;6702;47.068;15.458;2022-08-01T06:03:23;22.10;92.80
13268;DHT22;6702;47.068;15.458;2022-08-01T06:06:26;22.00;93.00
13268;DHT22;6702;47.068;15.458;2022-08-01T06:09:31;21.90;93.20
13268;DHT22;6702;47.068;15.458;2022-08-01T06:12:34;21.90;93.40
13268;DHT22;6702;47.068;15.458;2022-08-01T06:15:38;21.90;93.50
13268;DHT22;6702;47.068;15.458;2022-08-01T06:18:41;21.90;93.60
13268;DHT22;6702;47.068;15.458;2022-08-01T06:21:44;22.00;93.80
13268;DHT22;6702;47.068;15.458;2022-08-01T06:24:49;22.10;93.70
13268;DHT22;6702;47.068;15.458;2022-08-01T06:27:52;22.10;93.70
13268;DHT22;6702;47.068;15.458;2022-08-01T06:30:55;22.20;93.90
13268;DHT22;6702;47.068;15.458;2022-08-01T06:34:00;22.30;93.60
13268;DHT22;6702;47.068;15.458;2022-08-01T06:37:03;22.50;93.30
13268;DHT22;6702;47.068;15.458;2022-08-01T06:40:11;22.60;93.20
13268;DHT22;6702;47.068;15.458;2022-08-01T06:43:18;22.70;92.90
13268;DHT22;6702;47.068;15.458;2022-08-01T06:46:21;22.70;92.90
13268;DHT22;6702;47.068;15.458;2022-08-01T06:49:31;22.60;92.80
13268;DHT22;6702;47.068;15.458;2022-08-01T06:52:34;22.40;93.00
13268;DHT22;6702;47.068;15.458;2022-08-01T06:55:39;22.30;93.40
13268;DHT22;6702;47.068;15.458;2022-08-01T06:58:42;22.30;93.30
13268;DHT22;6702;47.068;15.458;2022-08-01T07:01:45;22.40;93.70
13268;DHT22;6702;47.068;15.458;2022-08-01T07:04:48;22.40;93.70
13268;DHT22;6702;47.068;15.458;2022-08-01T07:07:51;22.40;93.60
13268;DHT22;6702;47.068;15.458;2022-08-01T07:10:56;22.50;93.40
13268;DHT22;6702;47.068;15.458;2022-08-01T07:14:01;22.60;93.30
13268;DHT22;6702;47.068;15.458;2022-08-01T07:17:04;22.80;93.50
13268;DHT22;6702;47.068;15.458;2022-08-01T07:20:09;22.90;92.90
13268;DHT22;6702;47.068;15.458;2022-08-01T07:23:17;23.00;93.00
13268;DHT22;6702;47.068;15.458;2022-08-01T07:26:24;23.20;92.90
13268;DHT22;6702;47.068;15.458;2022-08-01T07:29:28;23.30;92.60
13268;DHT22;6702;47.068;15.458;2022-08-01T07:32:31;23.40;92.00
13268;DHT22;6702;47.068;15.458;2022-08-01T07:35:36;23.60;91.70
13268;DHT22;6702;47.068;15.458;2022-08-01T07:38:40;23.90;91.80
13268;DHT22;6702;47.068;15.458;2022-08-01T07:41:44;24.40;91.60
13268;DHT22;6702;47.068;15.458;2022-08-01T07:45:08;27.30;88.50
13268;DHT22;6702;47.068;15.458;2022-08-01T07:48:12;31.30;73.00
13268;DHT22;6702;47.068;15.458;2022-08-01T07:51:15;34.20;60.40
13268;DHT22;6702;47.068;15.458;2022-08-01T07:54:18;36.30;53.10
13268;DHT22;6702;47.068;15.458;2022-08-01T07:57:36;37.70;47.90
13268;DHT22;6702;47.068;15.458;2022-08-01T08:00:39;37.10;45.20
13268;DHT22;6702;47.068;15.458;2022-08-01T08:03:42;36.10;46.30
13268;DHT22;6702;47.068;15.458;2022-08-01T08:06:45;35.70;46.10
13268;DHT22;6702;47.068;15.458;2022-08-01T08:09:49;34.70;47.10
13268;DHT22;6702;47.068;15.458;2022-08-01T08:12:53;33.50;49.20
13268;DHT22;6702;47.068;15.458;2022-08-01T08:15:57;32.30;51.20
13268;DHT22;6702;47.068;15.458;2022-08-01T08:19:01;31.10;53.70
13268;DHT22;6702;47.068;15.458;2022-08-01T08:22:05;30.30;55.30
13268;DHT22;6702;47.068;15.458;2022-08-01T08:25:09;29.80;57.10
13268;DHT22;6702;47.068;15.458;2022-08-01T08:28:14;29.30;58.10
13268;DHT22;6702;47.068;15.458;2022-08-01T08:31:17;29.10;59.20
13268;DHT22;6702;47.068;15.458;2022-08-01T08:34:41;28.70;60.20
13268;DHT22;6702;47.068;15.458;2022-08-01T08:37:44;28.50;61.50
13268;DHT22;6702;47.068;15.458;2022-08-01T08:40:49;28.40;62.10
13268;DHT22;6702;47.068;15.458;2022-08-01T08:43:54;28.10;63.70
13268;DHT22;6702;47.068;15.458;2022-08-01T08:47:01;28.20;64.50
13268;DHT22;6702;47.068;15.458;2022-08-01T08:50:09;28.60;64.50
13268;DHT22;6702;47.068;15.458;2022-08-01T08:53:13;29.10;64.00
13268;DHT22;6702;47.068;15.458;2022-08-01T08:56:20;30.30;61.60
13268;DHT22;6702;47.068;15.458;2022-08-01T08:59:26;31.40;58.20
13268;DHT22;6702;47.068;15.458;2022-08-01T09:02:30;31.90;57.40
13268;DHT22;6702;47.068;15.458;2022-08-01T09:05:33;32.20;56.30
13268;DHT22;6702;47.068;15.458;2022-08-01T09:08:40;32.50;54.90
13268;DHT22;6702;47.068;15.458;2022-08-01T09:11:44;32.80;53.20
13268;DHT22;6702;47.068;15.458;2022-08-01T09:15:08;32.80;53.00
13268;DHT22;6702;47.068;15.458;2022-08-01T09:18:29;32.90;53.00
13268;DHT22;6702;47.068;15.458;2022-08-01T09:21:32;33.10;52.50
13268;DHT22;6702;47.068;15.458;2022-08-01T09:24:35;33.10;51.20
13268;DHT22;6702;47.068;15.458;2022-08-01T09:27:39;32.80;50.60
13268;DHT22;6702;47.068;15.458;2022-08-01T09:30:48;32.80;51.40
13268;DHT22;6702;47.068;15.458;2022-08-01T09:33:54;33.10;51.00
13268;DHT22;6702;47.068;15.458;2022-08-01T09:37:00;33.40;50.40
13268;DHT22;6702;47.068;15.458;2022-08-01T09:40:05;33.30;50.80
13268;DHT22;6702;47.068;15.458;2022-08-01T09:43:12;33.10;51.20
13268;DHT22;6702;47.068;15.458;2022-08-01T09:46:17;33.00;52.10
13268;DHT22;6702;47.068;15.458;2022-08-01T09:49:28;32.90;52.00
13268;DHT22;6702;47.068;15.458;2022-08-01T09:52:53;32.80;51.60
13268;DHT22;6702;47.068;15.458;2022-08-01T09:56:09;32.70;50.00
13268;DHT22;6702;47.068;15.458;2022-08-01T09:59:13;32.50;50.00
13268;DHT22;6702;47.068;15.458;2022-08-01T10:02:29;32.50;49.10
13268;DHT22;6702;47.068;15.458;2022-08-01T10:05:35;32.50;49.80
13268;DHT22;6702;47.068;15.458;2022-08-01T10:08:45;32.50;49.60
13268;DHT22;6702;47.068;15.458;2022-08-01T10:11:50;32.40;49.40
13268;DHT22;6702;47.068;15.458;2022-08-01T10:14:58;32.40;49.80
13268;DHT22;6702;47.068;15.458;2022-08-01T10:18:06;32.50;49.30
13268;DHT22;6702;47.068;15.458;2022-08-01T10:21:27;32.50;49.70
13268;DHT22;6702;47.068;15.458;2022-08-01T10:24:53;32.40;49.40
13268;DHT22;6702;47.068;15.458;2022-08-01T10:28:00;32.30;49.50
13268;DHT22;6702;47.068;15.458;2022-08-01T10:31:04;31.90;50.00
13268;DHT22;6702;47.068;15.458;2022-08-01T10:34:16;31.80;50.20
13268;DHT22;6702;47.068;15.458;2022-08-01T10:37:24;31.70;50.30
13268;DHT22;6702;47.068;15.458;2022-08-01T10:40:28;31.70;50.10
13268;DHT22;6702;47.068;15.458;2022-08-01T10:43:32;31.70;50.30
13268;DHT22;6702;47.068;15.458;2022-08-01T10:46:38;31.60;50.40
13268;DHT22;6702;47.068;15.458;2022-08-01T10:49:53;31.50;51.00
13268;DHT22;6702;47.068;15.458;2022-08-01T10:53:10;31.80;50.20
13268;DHT22;6702;47.068;15.458;2022-08-01T10:56:39;32.00;49.70
13268;DHT22;6702;47.068;15.458;2022-08-01T10:59:50;32.20;49.50
13268;DHT22;6702;47.068;15.458;2022-08-01T11:03:03;32.50;49.50
13268;DHT22;6702;47.068;15.458;2022-08-01T11:06:16;32.60;48.30
13268;DHT22;6702;47.068;15.458;2022-08-01T11:09:30;32.60;47.50
13268;DHT22;6702;47.068;15.458;2022-08-01T11:12:39;32.60;47.90
13268;DHT22;6702;47.068;15.458;2022-08-01T11:15:44;32.70;47.00
13268;DHT22;6702;47.068;15.458;2022-08-01T11:18:51;32.70;46.60
13268;DHT22;6702;47.068;15.458;2022-08-01T11:21:59;32.60;47.40
13268;DHT22;6702;47.068;15.458;2022-08-01T11:25:05;32.50;47.00
13268;DHT22;6702;47.068;15.458;2022-08-01T11:28:18;32.30;47.10
13268;DHT22;6702;47.068;15.458;2022-08-01T11:31:35;32.20;47.90
13268;DHT22;6702;47.068;15.458;2022-08-01T11:34:52;32.10;46.90
13268;DHT22;6702;47.068;15.458;2022-08-01T11:38:24;32.20;47.30
13268;DHT22;6702;47.068;15.458;2022-08-01T11:41:31;32.30;47.50
13268;DHT22;6702;47.068;15.458;2022-08-01T11:44:48;32.50;45.70
13268;DHT22;6702;47.068;15.458;2022-08-01T11:47:52;32.30;45.20
13268;DHT22;6702;47.068;15.458;2022-08-01T11:50:56;32.30;45.00
13268;DHT22;6702;47.068;15.458;2022-08-01T11:54:04;32.40;45.20
13268;DHT22;6702;47.068;15.458;2022-08-01T11:57:09;32.70;44.90
13268;DHT22;6702;47.068;15.458;2022-08-01T12:00:14;33.00;45.70
13268;DHT22;6702;47.068;15.458;2022-08-01T12:03:24;33.10;44.90
13268;DHT22;6702;47.068;15.458;2022-08-01T12:06:34;33.20;44.30
13268;DHT22;6702;47.068;15.458;2022-08-01T12:09:39;33.30;44.20
13268;DHT22;6702;47.068;15.458;2022-08-01T12:12:43;33.40;43.90
13268;DHT22;6702;47.068;15.458;2022-08-01T12:15:47;33.40;42.70
13268;DHT22;6702;47.068;15.458;2022-08-01T12:18:57;33.40;42.10
13268;DHT22;6702;47.068;15.458;2022-08-01T12:22:08;33.40;42.00
13268;DHT22;6702;47.068;15.458;2022-08-01T12:25:14;33.20;40.50
13268;DHT22;6702;47.068;15.458;2022-08-01T12:28:17;33.00;40.20
13268;DHT22;6702;47.068;15.458;2022-08-01T12:31:31;32.90;41.00
13268;DHT22;6702;47.068;15.458;2022-08-01T12:34:34;32.90;41.00
13268;DHT22;6702;47.068;15.458;2022-08-01T12:37:38;32.80;41.20
13268;DHT22;6702;47.068;15.458;2022-08-01T12:40:44;32.60;41.50
13268;DHT22;6702;47.068;15.458;2022-08-01T12:43:52;32.60;41.70
13268;DHT22;6702;47.068;15.458;2022-08-01T12:46:55;32.70;41.80
13268;DHT22;6702;47.068;15.458;2022-08-01T12:49:59;32.70;41.60
13268;DHT22;6702;47.068;15.458;2022-08-01T12:53:02;32.90;41.60
13268;DHT22;6702;47.068;15.458;2022-08-01T12:56:10;33.10;41.10
13268;DHT22;6702;47.068;15.458;2022-08-01T12:59:20;33.20;40.20
13268;DHT22;6702;47.068;15.458;2022-08-01T13:02:31;33.10;40.80
13268;DHT22;6702;47.068;15.458;2022-08-01T13:05:44;33.10;40.20
13268;DHT22;6702;47.068;15.458;2022-08-01T13:08:47;33.20;40.30
13268;DHT22;6702;47.068;15.458;2022-08-01T13:11:52;33.30;40.10
13268;DHT22;6702;47.068;15.458;2022-08-01T13:15:17;33.30;38.90
13268;DHT22;6702;47.068;15.458;2022-08-01T13:18:25;33.40;39.10
13268;DHT22;6702;47.068;15.458;2022-08-01T13:21:31;33.50;39.20
13268;DHT22;6702;47.068;15.458;2022-08-01T13:25:09;33.30;39.20
13268;DHT22;6702;47.068;15.458;2022-08-01T13:28:18;33.20;39.80
13268;DHT22;6702;47.068;15.458;2022-08-01T13:31:32;33.00;39.70
13268;DHT22;6702;47.068;15.458;2022-08-01T13:34:35;32.90;39.80
13268;DHT22;6702;47.068;15.458;2022-08-01T13:37:40;32.90;39.30
13268;DHT22;6702;47.068;15.458;2022-08-01T13:40:43;32.90;40.70
13268;DHT22;6702;47.068;15.458;2022-08-01T13:43:48;33.00;39.50
13268;DHT22;6702;47.068;15.458;2022-08-01T13:47:00;33.10;39.20
13268;DHT22;6702;47.068;15.458;2022-08-01T13:50:16;33.10;39.40
13268;DHT22;6702;47.068;15.458;2022-08-01T13:53:19;33.00;39.30
13268;DHT22;6702;47.068;15.458;2022-08-01T13:56:23;33.00;40.70
13268;DHT22;6702;47.068;15.458;2022-08-01T13:59:28;33.10;40.20
13268;DHT22;6702;47.068;15.458;2022-08-01T14:02:31;32.90;40.10
13268;DHT22;6702;47.068;15.458;2022-08-01T14:05:34;32.90;41.00
13268;DHT22;6702;47.068;15.458;2022-08-01T14:08:37;33.10;41.30
13268;DHT22;6702;47.068;15.458;2022-08-01T14:11:46;33.00;40.60
13268;DHT22;6702;47.068;15.458;2022-08-01T14:14:51;33.00;40.90
13268;DHT22;6702;47.068;15.458;2022-08-01T14:17:54;33.10;40.70
13268;DHT22;6702;47.068;15.458;2022-08-01T14:20:57;33.20;40.70
13268;DHT22;6702;47.068;15.458;2022-08-01T14:24:07;33.10;40.70
13268;DHT22;6702;47.068;15.458;2022-08-01T14:27:11;33.10;40.10
13268;DHT22;6702;47.068;15.458;2022-08-01T14:30:15;33.20;39.00
13268;DHT22;6702;47.068;15.458;2022-08-01T14:33:18;33.10;39.10
13268;DHT22;6702;47.068;15.458;2022-08-01T14:36:22;33.10;40.10
13268;DHT22;6702;47.068;15.458;2022-08-01T14:39:32;33.10;39.90
13268;DHT22;6702;47.068;15.458;2022-08-01T14:42:35;33.00;39.20
13268;DHT22;6702;47.068;15.458;2022-08-01T14:45:40;32.70;40.00
13268;DHT22;6702;47.068;15.458;2022-08-01T14:48:43;32.70;39.90
13268;DHT22;6702;47.068;15.458;2022-08-01T14:51:47;32.70;39.90
13268;DHT22;6702;47.068;15.458;2022-08-01T14:54:50;32.60;40.80
13268;DHT22;6702;47.068;15.458;2022-08-01T14:57:53;32.50;40.70
13268;DHT22;6702;47.068;15.458;2022-08-01T15:00:58;32.40;42.00
13268;DHT22;6702;47.068;15.458;2022-08-01T15:04:02;32.40;42.20
13268;DHT22;6702;47.068;15.458;2022-08-01T15:07:10;32.30;42.60
13268;DHT22;6702;47.068;15.458;2022-08-01T15:10:14;32.10;42.70
13268;DHT22;6702;47.068;15.458;2022-08-01T15:13:17;32.00;44.20
13268;DHT22;6702;47.068;15.458;2022-08-01T15:16:22;32.00;45.00
13268;DHT22;6702;47.068;15.458;2022-08-01T15:19:26;31.90;45.70
13268;DHT22;6702;47.068;15.458;2022-08-01T15:22:29;31.70;46.90
13268;DHT22;6702;47.068;15.458;2022-08-01T15:25:32;31.60;47.60
13268;DHT22;6702;47.068;15.458;2022-08-01T15:28:42;31.20;48.30
13268;DHT22;6702;47.068;15.458;2022-08-01T15:31:47;30.80;49.30
13268;DHT22;6702;47.068;15.458;2022-08-01T15:34:51;30.40;50.20
13268;DHT22;6702;47.068;15.458;2022-08-01T15:37:55;29.90;51.80
13268;DHT22;6702;47.068;15.458;2022-08-01T15:40:59;29.90;52.40
13268;DHT22;6702;47.068;15.458;2022-08-01T15:44:02;30.00;52.70
13268;DHT22;6702;47.068;15.458;2022-08-01T15:47:08;29.70;53.00
13268;DHT22;6702;47.068;15.458;2022-08-01T15:50:11;29.80;53.50
13268;DHT22;6702;47.068;15.458;2022-08-01T15:53:14;29.80;53.10
13268;DHT22;6702;47.068;15.458;2022-08-01T15:56:17;29.50;53.20
13268;DHT22;6702;47.068;15.458;2022-08-01T15:59:21;29.30;53.20
13268;DHT22;6702;47.068;15.458;2022-08-01T16:02:25;29.40;53.90
13268;DHT22;6702;47.068;15.458;2022-08-01T16:05:29;29.50;54.60
13268;DHT22;6702;47.068;15.458;2022-08-01T16:08:32;29.60;54.00
13268;DHT22;6702;47.068;15.458;2022-08-01T16:11:35;29.70;54.00
13268;DHT22;6702;47.068;15.458;2022-08-01T16:14:51;29.80;53.90
13268;DHT22;6702;47.068;15.458;2022-08-01T16:17:56;29.80;54.30
13268;DHT22;6702;47.068;15.458;2022-08-01T16:21:03;29.90;54.60
13268;DHT22;6702;47.068;15.458;2022-08-01T16:24:08;29.80;54.30
13268;DHT22;6702;47.068;15.458;2022-08-01T16:27:11;29.80;54.00
13268;DHT22;6702;47.068;15.458;2022-08-01T16:30:15;29.70;54.30
13268;DHT22;6702;47.068;15.458;2022-08-01T16:33:20;29.70;54.60
13268;DHT22;6702;47.068;15.458;2022-08-01T16:36:44;29.60;54.30
13268;DHT22;6702;47.068;15.458;2022-08-01T16:39:47;29.30;54.30
13268;DHT22;6702;47.068;15.458;2022-08-01T16:42:50;29.20;54.70
13268;DHT22;6702;47.068;15.458;2022-08-01T16:45:53;29.20;55.20
13268;DHT22;6702;47.068;15.458;2022-08-01T16:48:58;29.20;55.40
13268;DHT22;6702;47.068;15.458;2022-08-01T16:52:01;29.10;55.80
13268;DHT22;6702;47.068;15.458;2022-08-01T16:55:05;29.00;56.10
13268;DHT22;6702;47.068;15.458;2022-08-01T16:58:08;28.90;56.70
13268;DHT22;6702;47.068;15.458;2022-08-01T17:01:12;28.80;57.20
13268;DHT22;6702;47.068;15.458;2022-08-01T17:04:37;28.70;57.30
13268;DHT22;6702;47.068;15.458;2022-08-01T17:07:40;28.50;57.90
13268;DHT22;6702;47.068;15.458;2022-08-01T17:10:43;28.40;58.60
13268;DHT22;6702;47.068;15.458;2022-08-01T17:13:46;28.30;59.40
13268;DHT22;6702;47.068;15.458;2022-08-01T17:16:50;28.10;60.10
13268;DHT22;6702;47.068;15.458;2022-08-01T17:19:54;27.90;61.00
13268;DHT22;6702;47.068;15.458;2022-08-01T17:22:57;27.80;61.90
13268;DHT22;6702;47.068;15.458;2022-08-01T17:26:01;27.70;62.40
13268;DHT22;6702;47.068;15.458;2022-08-01T17:29:04;27.70;62.90
13268;DHT22;6702;47.068;15.458;2022-08-01T17:32:08;27.60;63.20
13268;DHT22;6702;47.068;15.458;2022-08-01T17:35:13;27.60;62.70
13268;DHT22;6702;47.068;15.458;2022-08-01T17:38:16;27.60;63.10
13268;DHT22;6702;47.068;15.458;2022-08-01T17:41:20;27.70;63.20
13268;DHT22;6702;47.068;15.458;2022-08-01T17:44:23;27.70;63.40
13268;DHT22;6702;47.068;15.458;2022-08-01T17:47:28;27.70;63.30
13268;DHT22;6702;47.068;15.458;2022-08-01T17:50:53;27.70;63.60
13268;DHT22;6702;47.068;15.458;2022-08-01T17:53:56;27.70;63.40
13268;DHT22;6702;47.068;15.458;2022-08-01T17:56:59;27.70;63.40
13268;DHT22;6702;47.068;15.458;2022-08-01T18:00:10;27.70;63.60
13268;DHT22;6702;47.068;15.458;2022-08-01T18:03:13;27.70;64.10
13268;DHT22;6702;47.068;15.458;2022-08-01T18:06:32;27.60;64.30
13268;DHT22;6702;47.068;15.458;2022-08-01T18:09:36;27.50;65.10
13268;DHT22;6702;47.068;15.458;2022-08-01T18:12:46;27.50;65.80
13268;DHT22;6702;47.068;15.458;2022-08-01T18:15:49;27.50;65.80
13268;DHT22;6702;47.068;15.458;2022-08-01T18:18:52;27.50;66.20
13268;DHT22;6702;47.068;15.458;2022-08-01T18:21:58;27.40;66.40
13268;DHT22;6702;47.068;15.458;2022-08-01T18:25:02;27.30;66.80
13268;DHT22;6702;47.068;15.458;2022-08-01T18:28:09;27.30;66.90
13268;DHT22;6702;47.068;15.458;2022-08-01T18:31:33;27.20;67.00
13268;DHT22;6702;47.068;15.458;2022-08-01T18:34:36;27.20;67.70
13268;DHT22;6702;47.068;15.458;2022-08-01T18:37:41;27.10;68.00
13268;DHT22;6702;47.068;15.458;2022-08-01T18:40:56;27.10;68.60
13268;DHT22;6702;47.068;15.458;2022-08-01T18:43:59;27.00;69.80
13268;DHT22;6702;47.068;15.458;2022-08-01T18:47:09;26.90;70.30
13268;DHT22;6702;47.068;15.458;2022-08-01T18:50:12;26.90;70.80
13268;DHT22;6702;47.068;15.458;2022-08-01T18:53:17;26.80;71.30
13268;DHT22;6702;47.068;15.458;2022-08-01T18:56:21;26.80;72.20
13268;DHT22;6702;47.068;15.458;2022-08-01T18:59:24;26.60;72.90
13268;DHT22;6702;47.068;15.458;2022-08-01T19:02:28;26.60;73.80
13268;DHT22;6702;47.068;15.458;2022-08-01T19:05:31;26.50;74.30
13268;DHT22;6702;47.068;15.458;2022-08-01T19:08:38;26.50;75.60
13268;DHT22;6702;47.068;15.458;2022-08-01T19:11:41;26.50;75.20
13268;DHT22;6702;47.068;15.458;2022-08-01T19:14:44;26.40;75.50
13268;DHT22;6702;47.068;15.458;2022-08-01T19:17:47;26.40;75.50
13268;DHT22;6702;47.068;15.458;2022-08-01T19:20:50;26.40;75.80
13268;DHT22;6702;47.068;15.458;2022-08-01T19:23:55;26.40;76.10
13268;DHT22;6702;47.068;15.458;2022-08-01T19:27:15;26.20;76.60
13268;DHT22;6702;47.068;15.458;2022-08-01T19:30:19;26.10;77.50
13268;DHT22;6702;47.068;15.458;2022-08-01T19:33:22;26.00;78.40
13268;DHT22;6702;47.068;15.458;2022-08-01T19:36:25;26.00;78.80
13268;DHT22;6702;47.068;15.458;2022-08-01T19:39:30;26.00;79.40